createdAt,value
2023-04-09T00:00:10.812Z,77.59
2023-04-09T00:03:13.671Z,77.39
2023-04-09T00:06:16.446Z,77.61
2023-04-09T00:09:20.784Z,77.94
2023-04-09T00:12:24.812Z,78.11
2023-04-09T00:15:31.242Z,78.27
2023-04-09T00:18:34.465Z,78.52
2023-04-09T00:21:37.171Z,78.72
2023-04-09T00:24:39.800Z,78.67
2023-04-09T00:27:43.856Z,78.71
2023-04-09T00:30:46.569Z,78.65
2023-04-09T00:33:49.365Z,78.83
2023-04-09T00:36:51.993Z,78.91
2023-04-09T00:39:54.691Z,78.79
2023-04-09T00:42:58.830Z,79.05
2023-04-09T00:46:01.891Z,79.08
2023-04-09T00:49:06.903Z,78.80
2023-04-09T00:52:09.576Z,79.02
2023-04-09T00:55:13.671Z,79.16
2023-04-09T00:58:17.917Z,79.25
2023-04-09T01:01:21.222Z,79.33
2023-04-09T01:04:25.002Z,79.40
2023-04-09T01:07:40.303Z,79.25
2023-04-09T01:10:45.893Z,79.48
2023-04-09T01:13:56.460Z,79.64
2023-04-09T01:17:05.830Z,79.66
2023-04-09T01:20:13.113Z,79.56
2023-04-09T01:23:20.343Z,79.57
2023-04-09T01:26:37.854Z,79.74
2023-04-09T01:29:47.547Z,79.97
2023-04-09T01:32:52.200Z,80.02
2023-04-09T01:35:55.922Z,79.99
2023-04-09T01:38:58.793Z,80.13
2023-04-09T01:42:04.233Z,80.36
2023-04-09T01:45:11.734Z,80.35
2023-04-09T01:48:16.022Z,80.42
2023-04-09T01:51:19.460Z,80.26
2023-04-09T01:54:22.141Z,80.39
2023-04-09T01:57:24.836Z,80.68
2023-04-09T02:00:36.219Z,80.43
2023-04-09T02:03:45.543Z,80.47
2023-04-09T02:06:54.421Z,80.51
2023-04-09T02:10:00.496Z,80.55
2023-04-09T02:13:06.254Z,80.68
2023-04-09T02:16:12.688Z,80.63
2023-04-09T02:19:15.646Z,80.69
2023-04-09T02:22:18.534Z,80.47
2023-04-09T02:25:24.363Z,80.47
2023-04-09T02:28:27.037Z,80.55
2023-04-09T02:31:32.092Z,80.54
2023-04-09T02:34:35.157Z,80.55
2023-04-09T02:37:37.861Z,80.62
2023-04-09T02:40:41.240Z,80.54
2023-04-09T02:43:43.914Z,80.55
2023-04-09T02:46:49.035Z,80.75
2023-04-09T02:49:51.969Z,80.58
2023-04-09T02:52:54.814Z,80.65
2023-04-09T02:55:57.493Z,80.64
2023-04-09T02:59:00.194Z,80.86
2023-04-09T03:02:04.358Z,80.66
2023-04-09T03:05:08.128Z,80.51
2023-04-09T03:08:11.278Z,80.67
2023-04-09T03:11:14.177Z,80.51
2023-04-09T03:14:17.121Z,80.55
2023-04-09T03:17:21.237Z,80.47
2023-04-09T03:20:24.047Z,80.48
2023-04-09T03:23:27.139Z,80.38
2023-04-09T03:26:36.125Z,80.13
2023-04-09T03:29:38.834Z,80.33
2023-04-09T03:32:43.118Z,80.20
2023-04-09T03:35:46.115Z,80.24
2023-04-09T03:38:48.950Z,79.93
2023-04-09T03:41:51.614Z,80.04
2023-04-09T03:44:54.928Z,80.18
2023-04-09T03:47:58.971Z,80.10
2023-04-09T03:51:09.240Z,79.91
2023-04-09T03:54:11.913Z,80.08
2023-04-09T03:57:14.648Z,80.11
2023-04-09T04:00:17.468Z,79.86
2023-04-09T04:03:21.556Z,80.15
2023-04-09T04:06:24.318Z,79.91
2023-04-09T04:09:26.984Z,79.89
2023-04-09T04:12:29.611Z,79.81
2023-04-09T04:15:32.259Z,79.85
2023-04-09T04:18:36.360Z,79.96
2023-04-09T04:21:39.055Z,79.93
2023-04-09T04:24:41.766Z,80.19
2023-04-09T04:27:44.566Z,80.12
2023-04-09T04:30:47.242Z,79.97
2023-04-09T04:33:51.264Z,79.93
2023-04-09T04:36:53.990Z,80.32
2023-04-09T04:39:56.698Z,80.80
2023-04-09T04:42:59.386Z,80.81
2023-04-09T04:46:02.249Z,80.70
2023-04-09T04:49:06.453Z,80.72
2023-04-09T04:52:09.172Z,80.94
2023-04-09T04:55:11.992Z,80.96
2023-04-09T04:58:14.690Z,80.53
2023-04-09T05:01:17.852Z,80.61
2023-04-09T05:04:22.276Z,80.63
2023-04-09T05:07:24.988Z,80.92
2023-04-09T05:10:27.672Z,80.89
2023-04-09T05:13:30.354Z,81.05
2023-04-09T05:16:33.328Z,80.59
2023-04-09T05:19:37.415Z,80.67
2023-04-09T05:22:40.137Z,80.72
2023-04-09T05:25:42.898Z,80.67
2023-04-09T05:28:45.550Z,80.83
2023-04-09T05:31:48.296Z,80.92
2023-04-09T05:34:52.296Z,81.54
2023-04-09T05:37:55.047Z,81.89
2023-04-09T05:40:57.767Z,82.24
2023-04-09T05:44:01.068Z,82.40
2023-04-09T05:47:03.784Z,82.75
2023-04-09T05:50:08.763Z,83.28
2023-04-09T05:53:11.409Z,83.34
2023-04-09T05:56:15.564Z,83.40
2023-04-09T05:59:18.483Z,83.68
2023-04-09T06:02:25.891Z,83.59
2023-04-09T06:05:30.412Z,83.85
2023-04-09T06:08:33.188Z,83.92
2023-04-09T06:11:36.192Z,83.53
2023-04-09T06:14:38.882Z,83.43
2023-04-09T06:17:41.653Z,83.39
2023-04-09T06:20:45.663Z,83.67
2023-04-09T06:23:48.361Z,83.39
2023-04-09T06:26:51.452Z,83.29
2023-04-09T06:29:54.140Z,82.96
2023-04-09T06:32:56.917Z,82.55
2023-04-09T06:36:01.440Z,82.01
2023-04-09T06:39:04.553Z,81.59
2023-04-09T06:42:07.270Z,81.29
2023-04-09T06:45:10.712Z,80.73
2023-04-09T06:48:13.400Z,80.23
2023-04-09T06:51:17.480Z,79.71
2023-04-09T06:54:20.332Z,79.53
2023-04-09T06:57:23.389Z,79.58
2023-04-09T07:00:26.178Z,79.35
2023-04-09T07:03:29.947Z,78.78
2023-04-09T07:06:34.240Z,78.29
2023-04-09T07:09:36.956Z,78.47
2023-04-09T07:12:39.691Z,77.72
2023-04-09T07:15:42.670Z,77.33
2023-04-09T07:18:46.098Z,77.12
2023-04-09T07:21:51.647Z,77.61
2023-04-09T07:24:55.086Z,77.49
2023-04-09T07:27:58.024Z,77.35
2023-04-09T07:31:03.511Z,76.74
2023-04-09T07:34:06.300Z,76.25
2023-04-09T07:37:10.473Z,76.17
2023-04-09T07:40:13.569Z,75.38
2023-04-09T07:43:16.944Z,74.10
2023-04-09T07:46:20.811Z,72.25
2023-04-09T07:49:23.687Z,71.69
2023-04-09T07:52:27.827Z,71.64
2023-04-09T07:55:30.581Z,71.18
2023-04-09T07:58:33.318Z,69.80
2023-04-09T08:01:36.010Z,69.74
2023-04-09T08:04:39.100Z,70.62
2023-04-09T08:07:43.176Z,70.23
2023-04-09T08:10:45.885Z,70.68
2023-04-09T08:13:48.604Z,71.66
2023-04-09T08:16:52.471Z,71.61
2023-04-09T08:19:55.495Z,71.48
2023-04-09T08:23:00.422Z,70.77
2023-04-09T08:26:03.395Z,69.21
2023-04-09T08:29:06.880Z,68.71
2023-04-09T08:32:09.725Z,69.26
2023-04-09T08:35:13.223Z,68.39
2023-04-09T08:38:17.253Z,68.48
2023-04-09T08:41:20.933Z,68.26
2023-04-09T08:44:27.083Z,68.23
2023-04-09T08:47:30.103Z,67.78
2023-04-09T08:50:33.867Z,67.24
2023-04-09T08:53:39.518Z,67.18
2023-04-09T08:56:42.422Z,65.88
2023-04-09T08:59:45.103Z,63.06
2023-04-09T09:03:04.766Z,63.02
2023-04-09T09:06:22.391Z,60.99
2023-04-09T09:09:26.870Z,61.21
2023-04-09T09:12:38.213Z,57.40
2023-04-09T09:15:41.303Z,57.29
2023-04-09T09:18:45.322Z,56.39
2023-04-09T09:21:56.703Z,56.86
2023-04-09T09:25:01.010Z,57.12
2023-04-09T09:28:10.041Z,55.35
2023-04-09T09:31:14.064Z,55.13
2023-04-09T09:34:17.853Z,54.33
2023-04-09T09:37:27.969Z,53.37
2023-04-09T09:40:32.061Z,53.88
2023-04-09T09:43:41.496Z,54.11
2023-04-09T09:46:44.297Z,51.54
2023-04-09T09:49:49.279Z,51.45
2023-04-09T09:52:55.544Z,51.33
2023-04-09T09:56:01.745Z,50.99
2023-04-09T09:59:08.838Z,50.51
2023-04-09T10:02:19.658Z,50.06
2023-04-09T10:05:26.969Z,49.10
2023-04-09T10:08:33.416Z,48.90
2023-04-09T10:11:38.862Z,47.85
2023-04-09T10:14:42.576Z,48.14
2023-04-09T10:17:46.218Z,48.84
2023-04-09T10:20:56.207Z,47.55
2023-04-09T10:23:59.861Z,45.41
2023-04-09T10:27:15.757Z,44.55
2023-04-09T10:30:35.967Z,44.65
2023-04-09T10:33:39.671Z,44.67
2023-04-09T10:36:44.786Z,44.28
2023-04-09T10:39:49.892Z,43.48
2023-04-09T10:42:55.380Z,42.67
2023-04-09T10:45:59.221Z,43.28
2023-04-09T10:49:17.879Z,41.28
2023-04-09T10:52:31.315Z,43.22
2023-04-09T10:55:37.243Z,44.09
2023-04-09T10:58:41.480Z,43.83
2023-04-09T11:01:53.645Z,42.80
2023-04-09T11:05:07.971Z,41.94
2023-04-09T11:08:12.601Z,42.74
2023-04-09T11:11:16.566Z,42.55
2023-04-09T11:14:22.127Z,39.92
2023-04-09T11:17:24.856Z,39.47
2023-04-09T11:20:27.769Z,40.00
2023-04-09T11:23:30.639Z,39.93
2023-04-09T11:26:37.415Z,38.53
2023-04-09T11:29:42.421Z,39.04
2023-04-09T11:32:45.490Z,39.00
2023-04-09T11:35:48.431Z,37.54
2023-04-09T11:38:51.562Z,37.51
2023-04-09T11:41:54.416Z,38.52
2023-04-09T11:44:59.002Z,37.32
2023-04-09T11:48:03.654Z,39.03
2023-04-09T11:51:06.665Z,38.23
2023-04-09T11:54:09.877Z,37.62
2023-04-09T11:57:12.520Z,38.00
2023-04-09T12:00:18.438Z,37.61
2023-04-09T12:03:29.808Z,37.63
2023-04-09T12:06:33.139Z,36.99
2023-04-09T12:09:47.074Z,36.99
2023-04-09T12:12:49.879Z,36.07
2023-04-09T12:15:58.722Z,35.96
2023-04-09T12:19:02.834Z,35.83
2023-04-09T12:22:05.619Z,36.10
2023-04-09T12:25:09.399Z,35.61
2023-04-09T12:28:13.740Z,35.76
2023-04-09T12:31:17.811Z,35.93
2023-04-09T12:34:20.715Z,35.81
2023-04-09T12:37:23.582Z,35.28
2023-04-09T12:40:26.406Z,35.23
2023-04-09T12:43:29.644Z,35.54
2023-04-09T12:46:33.798Z,35.26
2023-04-09T12:49:36.712Z,34.15
2023-04-09T12:52:39.635Z,34.59
2023-04-09T12:55:42.972Z,34.87
2023-04-09T12:58:45.747Z,35.75
2023-04-09T13:01:49.855Z,35.58
2023-04-09T13:04:53.124Z,36.62
2023-04-09T13:07:55.875Z,36.02
2023-04-09T13:10:58.611Z,35.95
2023-04-09T13:14:01.242Z,36.31
2023-04-09T13:17:05.561Z,35.65
2023-04-09T13:20:09.486Z,35.21
2023-04-09T13:23:12.148Z,34.81
2023-04-09T13:26:14.896Z,34.75
2023-04-09T13:29:17.904Z,34.37
2023-04-09T13:32:23.331Z,33.84
2023-04-09T13:35:26.181Z,33.51
2023-04-09T13:38:28.966Z,33.62
2023-04-09T13:41:33.036Z,33.24
2023-04-09T13:44:36.162Z,33.66
2023-04-09T13:47:40.262Z,33.94
2023-04-09T13:50:43.057Z,33.81
2023-04-09T13:53:46.053Z,33.33
2023-04-09T13:56:50.032Z,33.32
2023-04-09T13:59:52.680Z,33.60
2023-04-09T14:02:56.826Z,33.37
2023-04-09T14:05:59.518Z,33.24
2023-04-09T14:09:02.257Z,33.54
2023-04-09T14:12:05.047Z,33.67
2023-04-09T14:15:08.644Z,33.56
2023-04-09T14:18:12.721Z,33.90
2023-04-09T14:21:15.588Z,33.12
2023-04-09T14:24:20.085Z,33.02
2023-04-09T14:27:22.763Z,33.68
2023-04-09T14:30:39.468Z,33.99
2023-04-09T14:33:43.490Z,33.72
2023-04-09T14:36:46.187Z,33.95
2023-04-09T14:39:48.933Z,34.16
2023-04-09T14:42:51.643Z,33.95
2023-04-09T14:45:55.123Z,33.92
2023-04-09T14:48:59.151Z,33.69
2023-04-09T14:52:01.907Z,33.99
2023-04-09T14:55:05.155Z,34.05
2023-04-09T14:58:08.238Z,33.58
2023-04-09T15:01:11.125Z,34.28
2023-04-09T15:04:15.758Z,32.98
2023-04-09T15:07:18.518Z,32.60
2023-04-09T15:10:21.399Z,33.09
2023-04-09T15:13:24.318Z,33.02
2023-04-09T15:16:29.026Z,33.29
2023-04-09T15:19:33.116Z,32.98
2023-04-09T15:22:35.914Z,33.34
2023-04-09T15:25:38.696Z,33.48
2023-04-09T15:28:41.402Z,34.09
2023-04-09T15:31:44.103Z,33.26
2023-04-09T15:34:48.325Z,33.29
2023-04-09T15:37:50.989Z,33.47
2023-04-09T15:40:54.800Z,33.15
2023-04-09T15:43:57.472Z,33.37
2023-04-09T15:47:00.386Z,33.35
2023-04-09T15:50:04.994Z,33.08
2023-04-09T15:53:07.723Z,33.33
2023-04-09T15:56:15.190Z,33.63
2023-04-09T15:59:18.930Z,33.54
2023-04-09T16:02:22.664Z,33.55
2023-04-09T16:05:28.175Z,33.55
2023-04-09T16:08:31.827Z,33.15
2023-04-09T16:11:35.942Z,33.27
2023-04-09T16:14:39.220Z,33.27
2023-04-09T16:17:41.927Z,33.33
2023-04-09T16:20:46.515Z,33.26
2023-04-09T16:23:49.349Z,33.17
2023-04-09T16:26:52.115Z,33.45
2023-04-09T16:29:55.345Z,33.39
2023-04-09T16:32:58.506Z,33.41
2023-04-09T16:36:02.874Z,33.77
2023-04-09T16:39:06.291Z,33.89
2023-04-09T16:42:09.548Z,34.03
2023-04-09T16:45:12.569Z,34.27
2023-04-09T16:48:15.785Z,34.14
2023-04-09T16:51:20.723Z,34.19
2023-04-09T16:54:23.472Z,34.84
2023-04-09T16:57:26.451Z,34.99
2023-04-09T17:00:29.551Z,34.76
2023-04-09T17:03:32.393Z,35.03
2023-04-09T17:06:36.467Z,35.23
2023-04-09T17:09:39.236Z,35.69
2023-04-09T17:12:42.056Z,36.23
2023-04-09T17:15:44.793Z,36.23
2023-04-09T17:18:47.658Z,36.43
2023-04-09T17:21:51.779Z,36.91
2023-04-09T17:24:54.506Z,37.15
2023-04-09T17:27:57.347Z,37.18
2023-04-09T17:31:00.172Z,37.41
2023-04-09T17:34:03.563Z,38.07
2023-04-09T17:37:07.632Z,38.41
2023-04-09T17:40:12.483Z,38.41
2023-04-09T17:46:19.309Z,38.94
2023-04-09T17:49:22.681Z,39.13
2023-04-09T17:52:26.779Z,40.08
2023-04-09T17:55:30.650Z,40.77
2023-04-09T17:58:34.825Z,40.74
2023-04-09T18:01:37.993Z,42.01
2023-04-09T18:04:41.777Z,42.96
2023-04-09T18:07:46.087Z,43.34
2023-04-09T18:11:01.672Z,44.12
2023-04-09T18:14:14.113Z,45.01
2023-04-09T18:17:17.920Z,45.12
2023-04-09T18:20:21.232Z,44.78
2023-04-09T18:23:26.955Z,45.09
2023-04-09T18:26:29.862Z,45.53
2023-04-09T18:29:32.749Z,45.63
2023-04-09T18:32:35.498Z,45.93
2023-04-09T18:35:38.453Z,46.54
2023-04-09T18:38:42.532Z,47.17
2023-04-09T18:41:45.688Z,47.13
2023-04-09T18:44:48.804Z,47.49
2023-04-09T18:47:52.336Z,48.00
2023-04-09T18:50:55.171Z,48.40
2023-04-09T18:54:00.622Z,48.57
2023-04-09T18:57:04.212Z,48.90
2023-04-09T19:00:08.569Z,49.19
2023-04-09T19:03:12.201Z,49.36
2023-04-09T19:06:17.900Z,50.92
2023-04-09T19:09:22.554Z,51.71
2023-04-09T19:12:27.024Z,53.10
2023-04-09T19:15:30.531Z,53.48
2023-04-09T19:18:34.129Z,53.89
2023-04-09T19:21:36.907Z,54.16
2023-04-09T19:24:40.967Z,54.59
2023-04-09T19:27:43.784Z,55.08
2023-04-09T19:30:46.460Z,55.25
2023-04-09T19:33:49.232Z,55.72
2023-04-09T19:36:51.969Z,56.07
2023-04-09T19:39:56.306Z,56.14
2023-04-09T19:42:59.247Z,56.18
2023-04-09T19:46:05.953Z,56.85
2023-04-09T19:49:08.597Z,57.47
2023-04-09T19:52:11.350Z,58.48
2023-04-09T19:55:15.519Z,58.76
2023-04-09T19:58:18.528Z,58.82
2023-04-09T20:01:21.346Z,60.01
2023-04-09T20:04:24.786Z,61.19
2023-04-09T20:07:28.070Z,62.28
2023-04-09T20:10:32.186Z,63.18
2023-04-09T20:13:34.875Z,64.21
2023-04-09T20:16:37.635Z,63.88
2023-04-09T20:19:40.303Z,63.47
2023-04-09T20:22:46.503Z,63.70
2023-04-09T20:25:54.733Z,64.03
2023-04-09T20:28:57.492Z,64.33
2023-04-09T20:32:00.445Z,64.13
2023-04-09T20:35:03.660Z,63.96
2023-04-09T20:38:06.355Z,63.68
2023-04-09T20:41:10.499Z,63.43
2023-04-09T20:44:13.217Z,63.31
2023-04-09T20:47:16.398Z,63.04
2023-04-09T20:50:19.514Z,64.59
2023-04-09T20:53:24.273Z,64.40
2023-04-09T20:56:29.852Z,64.53
2023-04-09T20:59:32.591Z,65.19
2023-04-09T21:02:35.415Z,65.71
2023-04-09T21:05:38.277Z,66.16
2023-04-09T21:08:42.789Z,66.47
2023-04-09T21:11:46.907Z,66.07
2023-04-09T21:14:49.980Z,66.02
2023-04-09T21:17:52.784Z,66.02
2023-04-09T21:20:55.546Z,65.88
2023-04-09T21:23:58.417Z,66.03
2023-04-09T21:27:06.779Z,66.60
2023-04-09T21:30:10.436Z,66.55
2023-04-09T21:33:13.200Z,67.75
2023-04-09T21:36:16.058Z,68.84
2023-04-09T21:39:18.798Z,69.79
2023-04-09T21:42:22.946Z,70.92
2023-04-09T21:45:25.831Z,71.65
2023-04-09T21:48:30.594Z,72.04
2023-04-09T21:51:33.586Z,72.14
2023-04-09T21:54:36.259Z,73.09
2023-04-09T21:57:40.604Z,74.11
2023-04-09T22:00:43.304Z,74.61
2023-04-09T22:03:46.763Z,74.86
2023-04-09T22:06:49.539Z,74.97
2023-04-09T22:09:55.075Z,74.75
2023-04-09T22:12:59.126Z,74.76
2023-04-09T22:16:01.860Z,74.75
2023-04-09T22:19:04.835Z,74.77
2023-04-09T22:22:09.024Z,75.01
2023-04-09T22:25:12.383Z,74.86
2023-04-09T22:28:16.568Z,74.64
2023-04-09T22:31:19.997Z,74.33
2023-04-09T22:34:23.047Z,73.87
2023-04-09T22:37:28.773Z,73.52
2023-04-09T22:40:31.435Z,73.51
2023-04-09T22:43:36.176Z,73.61
2023-04-09T22:46:38.958Z,73.14
2023-04-09T22:49:43.821Z,72.78
2023-04-09T22:52:46.708Z,72.54
2023-04-09T22:55:51.601Z,72.60
2023-04-09T22:58:55.895Z,72.32
2023-04-09T23:01:59.260Z,72.25
2023-04-09T23:05:02.060Z,72.25
2023-04-09T23:08:05.145Z,72.79
2023-04-09T23:11:07.922Z,73.10
2023-04-09T23:14:12.110Z,73.10
2023-04-09T23:17:14.810Z,73.24
2023-04-09T23:20:17.957Z,73.18
2023-04-09T23:23:20.570Z,73.65
2023-04-09T23:26:23.242Z,73.62
2023-04-09T23:29:27.333Z,73.75
2023-04-09T23:32:30.111Z,73.51
2023-04-09T23:35:33.202Z,73.36
2023-04-09T23:38:36.035Z,73.20
2023-04-09T23:41:38.940Z,73.32
2023-04-09T23:44:43.985Z,73.28
2023-04-09T23:47:46.749Z,73.62
2023-04-09T23:50:49.546Z,74.08
2023-04-09T23:53:53.779Z,73.73
2023-04-09T23:56:57.662Z,74.04
